Time;durP1;ratioP1;P1;durP2;ratioP2;P2;SDS_P1;SDS_P2;PMS_P1;PMS_P2;Temp;Humidity;BMP_temperature;BMP_pressure;BME280_temperature;BME280_humidity;BME280_pressure;Samples;Min_cycle;Max_cycle;Signal;HPM_P1;HPM_P2
2023/09/08 00:00:51;;;;;;;10.30;7.03;;;;;;;;;;2075121;28;20484;-53
2023/09/08 00:01:52;;;;;;;11.65;6.95;;;;;;;;;;2075440;28;20034;-53
2023/09/08 00:02:53;;;;;;;9.95;7.18;;;;;;;;;;2075118;28;20053;-53
2023/09/08 00:03:53;;;;;;;9.05;7.30;;;;;;;;;;2075303;28;20038;-53
2023/09/08 00:04:54;;;;;;;11.15;7.20;;;;;;;;;;2075332;28;20067;-53
2023/09/08 00:05:55;;;;;;;8.40;7.00;;;;;;;;;;2075295;28;20469;-53
2023/09/08 00:06:55;;;;;;;10.85;7.95;;;;;;;;;;2075152;28;20385;-53
2023/09/08 00:07:56;;;;;;;11.32;7.85;;;;;;;;;;2074952;28;20038;-53
2023/09/08 00:08:57;;;;;;;13.70;8.57;;;;;;;;;;2075162;28;20046;-54
2023/09/08 00:09:58;;;;;;;12.23;8.43;;;;;;;;;;2075341;28;20037;-53
2023/09/08 00:10:58;;;;;;;13.10;8.27;;;;;;;;;;2075338;28;20046;-53
2023/09/08 00:11:59;;;;;;;10.73;8.35;;;;;;;;;;2075241;28;20072;-53
2023/09/08 00:13:00;;;;;;;10.65;7.47;;;;;;;;;;2075082;28;20045;-53
2023/09/08 00:14:00;;;;;;;9.13;7.60;;;;;;;;;;2074851;28;20480;-53
2023/09/08 00:15:01;;;;;;;10.00;7.35;;;;;;;;;;2075146;28;20038;-54
2023/09/08 00:16:02;;;;;;;10.25;7.75;;;;;;;;;;2075080;28;20049;-53
2023/09/08 00:17:04;;;;;;;10.40;7.93;;;;;;;;;;2074902;28;20064;-53
2023/09/08 00:18:05;;;;;;;10.18;8.18;;;;;;;;;;2075031;28;20053;-53
2023/09/08 00:19:05;;;;;;;10.70;8.18;;;;;;;;;;2075217;28;20468;-53
2023/09/08 00:20:09;;;;;;;12.07;7.30;;;;;;;;;;2074926;28;20405;-53
2023/09/08 00:21:09;;;;;;;10.77;8.00;;;;;;;;;;2075118;28;20049;-53
2023/09/08 00:22:10;;;;;;;13.40;8.00;;;;;;;;;;2074917;28;20431;-54
2023/09/08 00:23:11;;;;;;;13.23;9.05;;;;;;;;;;2075168;28;20122;-53
2023/09/08 00:24:12;;;;;;;10.80;8.68;;;;;;;;;;2074890;28;20069;-53
2023/09/08 00:25:13;;;;;;;12.45;9.05;;;;;;;;;;2075161;28;20044;-53
2023/09/08 00:26:13;;;;;;;13.02;8.98;;;;;;;;;;2074921;28;20060;-53
2023/09/08 00:27:16;;;;;;;15.98;9.25;;;;;;;;;;2074811;28;20049;-53
2023/09/08 00:28:17;;;;;;;12.27;9.85;;;;;;;;;;2074727;28;20046;-53
2023/09/08 00:29:17;;;;;;;11.77;8.05;;;;;;;;;;2075016;28;20362;-53
2023/09/08 00:30:18;;;;;;;14.75;10.18;;;;;;;;;;2075076;28;20044;-53
2023/09/08 00:31:19;;;;;;;12.65;9.02;;;;;;;;;;2075146;28;20045;-53
2023/09/08 00:32:19;;;;;;;13.77;8.43;;;;;;;;;;2075098;28;20042;-53
2023/09/08 00:33:22;;;;;;;13.32;9.98;;;;;;;;;;2074622;28;20038;-53
2023/09/08 00:34:22;;;;;;;11.85;9.00;;;;;;;;;;2074199;28;20048;-54
2023/09/08 00:35:23;;;;;;;12.32;9.10;;;;;;;;;;2074228;28;20075;-54
2023/09/08 00:36:24;;;;;;;12.45;9.20;;;;;;;;;;2074907;28;20057;-54
2023/09/08 00:37:25;;;;;;;11.50;9.10;;;;;;;;;;2073995;28;20080;-53
2023/09/08 00:38:26;;;;;;;11.77;8.70;;;;;;;;;;2074365;28;20048;-53
2023/09/08 00:39:26;;;;;;;10.63;8.35;;;;;;;;;;2075064;28;20066;-53
2023/09/08 00:40:27;;;;;;;10.52;8.32;;;;;;;;;;2075235;28;20034;-53
2023/09/08 00:41:28;;;;;;;11.40;8.98;;;;;;;;;;2074342;28;20061;-53
2023/09/08 00:42:29;;;;;;;15.85;8.80;;;;;;;;;;2074776;28;20438;-54
2023/09/08 00:43:30;;;;;;;12.65;8.80;;;;;;;;;;2074604;28;20477;-53
2023/09/08 00:44:30;;;;;;;10.57;7.78;;;;;;;;;;2065707;28;20053;-53
2023/09/08 00:45:38;;;;;;;10.43;8.25;;;;;;;;;;2073978;28;20053;-53
2023/09/08 00:46:39;;;;;;;11.48;8.88;;;;;;;;;;2075213;28;20030;-53
2023/09/08 00:47:40;;;;;;;11.63;8.48;;;;;;;;;;2074892;28;20465;-53
2023/09/08 00:48:41;;;;;;;10.43;8.40;;;;;;;;;;2073764;28;20046;-53
2023/09/08 00:49:42;;;;;;;11.88;8.52;;;;;;;;;;2073745;28;20045;-53
2023/09/08 00:50:42;;;;;;;11.18;8.90;;;;;;;;;;2074300;28;20473;-53
2023/09/08 00:51:43;;;;;;;13.60;9.18;;;;;;;;;;2074473;28;20405;-54
2023/09/08 00:52:46;;;;;;;12.50;8.60;;;;;;;;;;2074051;28;20052;-53
2023/09/08 00:53:47;;;;;;;11.40;8.90;;;;;;;;;;2074247;28;20038;-54
2023/09/08 00:54:48;;;;;;;12.63;9.60;;;;;;;;;;2073585;28;20038;-53
2023/09/08 00:55:49;;;;;;;12.55;9.18;;;;;;;;;;2074838;28;20045;-53
2023/09/08 00:56:52;;;;;;;11.38;9.27;;;;;;;;;;2074283;28;20049;-54
2023/09/08 00:57:52;;;;;;;11.57;9.32;;;;;;;;;;2073861;28;20041;-53
2023/09/08 00:58:53;;;;;;;12.02;9.23;;;;;;;;;;2074383;28;20041;-54
2023/09/08 00:59:54;;;;;;;12.75;9.80;;;;;;;;;;2074900;28;20069;-54
2023/09/08 01:00:57;;;;;;;14.93;10.18;;;;;;;;;;2073558;28;20041;-54
2023/09/08 01:01:58;;;;;;;14.65;9.98;;;;;;;;;;2074262;28;20046;-53
2023/09/08 01:02:59;;;;;;;14.40;10.13;;;;;;;;;;2074890;28;20539;-53
2023/09/08 01:04:00;;;;;;;15.48;10.40;;;;;;;;;;2073881;28;20037;-53
2023/09/08 01:05:01;;;;;;;14.50;10.07;;;;;;;;;;2073719;28;20042;-53
2023/09/08 01:06:02;;;;;;;12.95;9.82;;;;;;;;;;2073872;28;20425;-53
2023/09/08 01:07:03;;;;;;;12.05;9.63;;;;;;;;;;2074729;28;20069;-53
2023/09/08 01:08:04;;;;;;;12.60;10.85;;;;;;;;;;2073808;28;20042;-53
2023/09/08 01:09:05;;;;;;;13.07;10.13;;;;;;;;;;2073908;28;20457;-53
2023/09/08 01:10:06;;;;;;;13.63;10.20;;;;;;;;;;2074103;28;20041;-53
2023/09/08 01:11:08;;;;;;;12.05;9.57;;;;;;;;;;2074018;28;20045;-54
2023/09/08 01:12:09;;;;;;;14.70;9.90;;;;;;;;;;2074323;28;20041;-53
2023/09/08 01:13:09;;;;;;;13.02;10.15;;;;;;;;;;2074642;28;20041;-53
2023/09/08 01:14:13;;;;;;;15.60;9.50;;;;;;;;;;2074172;28;20038;-53
2023/09/08 01:15:14;;;;;;;11.80;9.10;;;;;;;;;;2074336;28;20036;-53
2023/09/08 01:16:15;;;;;;;13.43;10.40;;;;;;;;;;2074628;28;20030;-53
2023/09/08 01:17:16;;;;;;;12.93;9.38;;;;;;;;;;2073760;28;20528;-53
2023/09/08 01:18:17;;;;;;;13.23;9.48;;;;;;;;;;2073139;28;20052;-53
2023/09/08 01:19:17;;;;;;;12.73;9.70;;;;;;;;;;2074379;28;20049;-54
2023/09/08 01:20:23;;;;;;;11.07;9.02;;;;;;;;;;2073579;28;20046;-53
2023/09/08 01:21:56;;;;;;;13.13;8.95;;;;;;;;;;2074105;28;20050;-54
2023/09/08 01:23:08;;;;;;;12.70;9.70;;;;;;;;;;2037245;29;20052;-53
2023/09/08 01:24:09;;;;;;;12.13;9.50;;;;;;;;;;2070335;28;20366;-54
2023/09/08 01:25:25;;;;;;;12.80;9.63;;;;;;;;;;2073958;28;20038;-54
2023/09/08 01:26:27;;;;;;;12.07;10.07;;;;;;;;;;2073947;28;20416;-53
2023/09/08 01:27:27;;;;;;;12.55;10.27;;;;;;;;;;2074226;28;20045;-54
2023/09/08 01:28:28;;;;;;;12.05;9.98;;;;;;;;;;2065534;28;20046;-53
2023/09/08 01:29:29;;;;;;;14.90;9.48;;;;;;;;;;2065926;28;20391;-54
2023/09/08 01:30:32;;;;;;;14.85;9.75;;;;;;;;;;2057920;28;20394;-53
2023/09/08 01:31:33;;;;;;;11.52;9.48;;;;;;;;;;2065678;28;20046;-53
2023/09/08 01:32:34;;;;;;;13.90;10.43;;;;;;;;;;2073964;28;20046;-53
2023/09/08 01:33:34;;;;;;;11.95;9.27;;;;;;;;;;2074809;28;20069;-54
2023/09/08 01:34:36;;;;;;;11.98;9.65;;;;;;;;;;2073991;28;20045;-53
2023/09/08 01:35:39;;;;;;;12.07;9.63;;;;;;;;;;2073233;28;20425;-53
2023/09/08 01:36:40;;;;;;;12.10;9.57;;;;;;;;;;2065458;28;20041;-53
2023/09/08 01:37:42;;;;;;;16.35;9.45;;;;;;;;;;2065471;28;20054;-53
2023/09/08 01:38:42;;;;;;;13.35;11.00;;;;;;;;;;2074232;28;20037;-54
2023/09/08 01:39:43;;;;;;;12.75;10.52;;;;;;;;;;2073904;28;20038;-53
2023/09/08 01:40:44;;;;;;;12.98;9.80;;;;;;;;;;2073930;28;20033;-54
2023/09/08 01:41:44;;;;;;;14.30;9.52;;;;;;;;;;2073814;28;20030;-53
2023/09/08 01:42:45;;;;;;;13.63;10.00;;;;;;;;;;2073843;28;20042;-53
2023/09/08 01:43:46;;;;;;;12.32;9.43;;;;;;;;;;2074362;28;20034;-53
2023/09/08 01:44:47;;;;;;;12.80;10.05;;;;;;;;;;2074507;28;20025;-53
2023/09/08 01:45:47;;;;;;;10.60;8.93;;;;;;;;;;2074454;28;20045;-53
2023/09/08 01:46:51;;;;;;;12.32;9.55;;;;;;;;;;2073927;28;20042;-54
2023/09/08 01:47:51;;;;;;;11.57;9.40;;;;;;;;;;2074513;28;20060;-54
2023/09/08 01:48:52;;;;;;;11.55;9.45;;;;;;;;;;2074342;28;20036;-54
2023/09/08 01:49:53;;;;;;;13.98;10.50;;;;;;;;;;2074366;28;20042;-53
2023/09/08 01:50:53;;;;;;;10.90;8.88;;;;;;;;;;2073880;28;20053;-53
2023/09/08 01:51:55;;;;;;;14.15;10.73;;;;;;;;;;2073435;28;20045;-53
2023/09/08 01:52:56;;;;;;;12.48;10.13;;;;;;;;;;2065883;28;20045;-54
2023/09/08 01:53:57;;;;;;;13.48;10.55;;;;;;;;;;2073859;28;20045;-53
2023/09/08 01:54:58;;;;;;;14.02;9.50;;;;;;;;;;2074356;28;20038;-53
2023/09/08 01:55:58;;;;;;;12.25;8.75;;;;;;;;;;2073403;28;20378;-53
2023/09/08 01:56:59;;;;;;;11.20;9.38;;;;;;;;;;2073933;28;20041;-54
2023/09/08 01:58:00;;;;;;;11.68;9.38;;;;;;;;;;2073639;28;20038;-53
2023/09/08 01:59:02;;;;;;;14.40;10.05;;;;;;;;;;2065703;28;20053;-53
2023/09/08 02:00:03;;;;;;;14.25;9.95;;;;;;;;;;2057479;28;20053;-54
2023/09/08 02:01:13;;;;;;;12.73;9.43;;;;;;;;;;2067215;28;20045;-53
2023/09/08 02:02:14;;;;;;;11.73;9.43;;;;;;;;;;2065538;28;20089;-53
2023/09/08 02:03:15;;;;;;;11.95;9.13;;;;;;;;;;2065449;28;20042;-54
2023/09/08 02:04:15;;;;;;;12.38;8.90;;;;;;;;;;2074448;28;20030;-53
2023/09/08 02:05:16;;;;;;;12.70;10.55;;;;;;;;;;2074463;28;20033;-53
2023/09/08 02:06:17;;;;;;;12.13;10.00;;;;;;;;;;2065073;28;20085;-53
2023/09/08 02:07:18;;;;;;;13.75;9.77;;;;;;;;;;2057826;28;20041;-53
2023/09/08 02:08:18;;;;;;;13.70;10.00;;;;;;;;;;2065346;28;20050;-54
2023/09/08 02:09:19;;;;;;;13.50;10.27;;;;;;;;;;2073866;28;20134;-53
2023/09/08 02:10:20;;;;;;;14.23;10.38;;;;;;;;;;2074523;28;20057;-53
2023/09/08 02:11:21;;;;;;;12.52;10.77;;;;;;;;;;2073100;28;20046;-53
2023/09/08 02:12:23;;;;;;;12.65;9.90;;;;;;;;;;2073754;28;20046;-53
2023/09/08 02:13:24;;;;;;;12.57;10.13;;;;;;;;;;2065476;28;20038;-53
2023/09/08 02:14:25;;;;;;;12.52;9.15;;;;;;;;;;2073514;28;20416;-54
2023/09/08 02:15:26;;;;;;;13.00;10.18;;;;;;;;;;2073403;28;20041;-53
2023/09/08 02:16:28;;;;;;;13.98;10.25;;;;;;;;;;2065707;28;20038;-53
2023/09/08 02:17:29;;;;;;;14.02;10.10;;;;;;;;;;2064953;28;20441;-54
2023/09/08 02:18:29;;;;;;;14.93;11.20;;;;;;;;;;2073612;28;20056;-54
2023/09/08 02:19:30;;;;;;;15.23;10.85;;;;;;;;;;2072743;28;20054;-53
2023/09/08 02:20:31;;;;;;;14.15;10.68;;;;;;;;;;2065280;28;20050;-53
2023/09/08 02:21:32;;;;;;;12.23;10.35;;;;;;;;;;2073458;28;20049;-54
2023/09/08 02:22:32;;;;;;;15.68;10.73;;;;;;;;;;2064750;28;20046;-53
2023/09/08 02:23:33;;;;;;;12.68;10.68;;;;;;;;;;2065508;28;20042;-54
2023/09/08 02:24:34;;;;;;;17.25;11.57;;;;;;;;;;2074249;28;20050;-53
2023/09/08 02:25:34;;;;;;;15.18;11.52;;;;;;;;;;2073832;28;20479;-53
2023/09/08 02:26:36;;;;;;;14.43;11.38;;;;;;;;;;2073709;28;20034;-53
2023/09/08 02:27:36;;;;;;;16.42;11.65;;;;;;;;;;2065664;28;20042;-53
2023/09/08 02:28:37;;;;;;;16.83;12.15;;;;;;;;;;2065049;28;20498;-53
2023/09/08 02:29:38;;;;;;;17.58;11.60;;;;;;;;;;2065677;28;20042;-53
2023/09/08 02:30:39;;;;;;;16.65;12.23;;;;;;;;;;2064875;28;20042;-53
2023/09/08 02:31:40;;;;;;;17.30;11.55;;;;;;;;;;2073466;28;20030;-53
2023/09/08 02:32:43;;;;;;;16.20;11.20;;;;;;;;;;2073691;28;20045;-53
2023/09/08 02:33:44;;;;;;;16.55;11.48;;;;;;;;;;2073357;28;20363;-53
2023/09/08 02:34:44;;;;;;;15.05;12.25;;;;;;;;;;2065243;28;20030;-53
2023/09/08 02:35:48;;;;;;;16.10;12.30;;;;;;;;;;2065251;28;20042;-53
2023/09/08 02:36:50;;;;;;;15.75;12.10;;;;;;;;;;2065130;28;20389;-53
2023/09/08 02:37:53;;;;;;;16.73;12.15;;;;;;;;;;2073550;28;20041;-54
2023/09/08 02:38:54;;;;;;;17.88;13.48;;;;;;;;;;2073422;28;20393;-53
2023/09/08 02:39:55;;;;;;;17.20;12.75;;;;;;;;;;2064739;28;20043;-53
2023/09/08 02:40:56;;;;;;;16.63;12.98;;;;;;;;;;2065048;28;20383;-53
2023/09/08 02:41:57;;;;;;;16.13;12.95;;;;;;;;;;2065250;28;20077;-53
2023/09/08 02:42:58;;;;;;;14.98;11.98;;;;;;;;;;2072954;28;20061;-53
2023/09/08 02:43:58;;;;;;;19.20;12.75;;;;;;;;;;2081680;28;20095;-53
2023/09/08 02:44:59;;;;;;;16.70;13.07;;;;;;;;;;2073106;28;20046;-53
2023/09/08 02:46:00;;;;;;;20.05;14.07;;;;;;;;;;2065769;28;20129;-53
2023/09/08 02:47:01;;;;;;;18.65;12.27;;;;;;;;;;2073211;28;20045;-53
2023/09/08 02:48:02;;;;;;;15.70;12.70;;;;;;;;;;2056910;28;20434;-52
2023/09/08 02:49:04;;;;;;;16.33;12.65;;;;;;;;;;2065221;28;20486;-54
2023/09/08 02:50:08;;;;;;;16.25;12.68;;;;;;;;;;2073530;28;20041;-53
2023/09/08 02:51:08;;;;;;;17.27;13.00;;;;;;;;;;2073217;28;20038;-54
2023/09/08 02:52:09;;;;;;;17.70;13.15;;;;;;;;;;2065543;28;20560;-54
2023/09/08 02:53:10;;;;;;;17.95;13.88;;;;;;;;;;2064957;28;20069;-53
2023/09/08 02:54:10;;;;;;;16.95;13.02;;;;;;;;;;2065427;28;20409;-53
2023/09/08 02:55:12;;;;;;;16.33;12.45;;;;;;;;;;2064981;28;20052;-53
2023/09/08 02:56:12;;;;;;;17.65;12.55;;;;;;;;;;2073059;28;20061;-53
2023/09/08 02:57:13;;;;;;;15.23;12.07;;;;;;;;;;2073949;28;20053;-53
2023/09/08 02:58:14;;;;;;;15.38;12.43;;;;;;;;;;2073060;28;20049;-54
2023/09/08 02:59:18;;;;;;;18.05;12.85;;;;;;;;;;2065234;28;20046;-53
2023/09/08 03:00:19;;;;;;;18.38;13.07;;;;;;;;;;2072436;28;20081;-53
2023/09/08 03:01:20;;;;;;;16.17;12.13;;;;;;;;;;2073956;28;20042;-54
2023/09/08 03:02:21;;;;;;;16.15;12.30;;;;;;;;;;2073231;28;20042;-53
2023/09/08 03:03:22;;;;;;;18.45;12.63;;;;;;;;;;2064567;28;20614;-53
2023/09/08 03:04:23;;;;;;;15.57;12.55;;;;;;;;;;2073363;28;20046;-53
2023/09/08 03:05:24;;;;;;;17.17;13.77;;;;;;;;;;2072955;28;20050;-53
2023/09/08 03:06:25;;;;;;;14.82;11.82;;;;;;;;;;2073858;28;20397;-54
2023/09/08 03:07:26;;;;;;;17.80;12.23;;;;;;;;;;2073521;28;20073;-53
2023/09/08 03:08:26;;;;;;;17.63;12.38;;;;;;;;;;2065092;28;20042;-53
2023/09/08 03:09:27;;;;;;;16.27;11.55;;;;;;;;;;2073388;28;20057;-53
2023/09/08 03:10:28;;;;;;;16.48;12.30;;;;;;;;;;2073861;28;20397;-53
2023/09/08 03:11:29;;;;;;;14.45;12.15;;;;;;;;;;2073610;28;20049;-53
2023/09/08 03:12:30;;;;;;;16.35;11.80;;;;;;;;;;2064860;28;20046;-54
2023/09/08 03:13:31;;;;;;;13.23;10.98;;;;;;;;;;2064825;28;20051;-53
2023/09/08 03:14:32;;;;;;;16.42;12.05;;;;;;;;;;2073727;28;20041;-53
2023/09/08 03:15:34;;;;;;;14.15;11.20;;;;;;;;;;2073705;28;20077;-53
2023/09/08 03:16:34;;;;;;;14.13;11.27;;;;;;;;;;2072929;28;20038;-53
2023/09/08 03:17:35;;;;;;;15.70;12.05;;;;;;;;;;2072981;28;20053;-53
2023/09/08 03:18:36;;;;;;;13.57;11.23;;;;;;;;;;2073871;28;20038;-53
2023/09/08 03:19:37;;;;;;;16.42;12.10;;;;;;;;;;2073207;28;20046;-53
2023/09/08 03:20:40;;;;;;;13.35;10.68;;;;;;;;;;2064781;28;20046;-54
2023/09/08 03:21:41;;;;;;;16.55;12.63;;;;;;;;;;2065184;28;20414;-53
2023/09/08 03:22:41;;;;;;;16.48;12.32;;;;;;;;;;2073803;28;20041;-53
2023/09/08 03:23:42;;;;;;;16.30;12.98;;;;;;;;;;2073035;28;20046;-53
2023/09/08 03:24:43;;;;;;;16.42;13.13;;;;;;;;;;2072795;28;20042;-53
2023/09/08 03:25:44;;;;;;;19.05;13.82;;;;;;;;;;2073245;28;20057;-52
2023/09/08 03:26:45;;;;;;;18.65;13.60;;;;;;;;;;2071957;28;20042;-53
2023/09/08 03:27:45;;;;;;;17.58;13.20;;;;;;;;;;2073127;28;20050;-53
2023/09/08 03:28:46;;;;;;;18.35;13.35;;;;;;;;;;2073167;28;20457;-54
2023/09/08 03:29:47;;;;;;;18.55;13.90;;;;;;;;;;2073186;28;20409;-53
2023/09/08 03:30:47;;;;;;;21.25;14.88;;;;;;;;;;2073385;28;20030;-53
2023/09/08 03:31:48;;;;;;;15.93;13.38;;;;;;;;;;2073286;28;20026;-54
2023/09/08 03:32:49;;;;;;;18.38;13.93;;;;;;;;;;2073065;28;20069;-54
2023/09/08 03:33:50;;;;;;;19.23;15.15;;;;;;;;;;2064562;28;20049;-53
2023/09/08 03:34:50;;;;;;;21.20;13.88;;;;;;;;;;2064662;28;20038;-53
2023/09/08 03:35:51;;;;;;;21.50;13.88;;;;;;;;;;2065113;28;20039;-54
2023/09/08 03:36:53;;;;;;;17.63;14.40;;;;;;;;;;2064959;28;20417;-53
2023/09/08 03:37:53;;;;;;;16.90;13.40;;;;;;;;;;2072595;28;20494;-54
2023/09/08 03:38:54;;;;;;;17.90;13.02;;;;;;;;;;2073761;28;20065;-53
2023/09/08 03:39:55;;;;;;;15.05;12.05;;;;;;;;;;2073697;28;20045;-53
2023/09/08 03:40:55;;;;;;;15.48;12.43;;;;;;;;;;2073684;28;20068;-53
2023/09/08 03:41:56;;;;;;;19.42;13.10;;;;;;;;;;2072909;28;20034;-53
2023/09/08 03:42:57;;;;;;;18.25;13.35;;;;;;;;;;2073162;28;20196;-53
2023/09/08 03:43:58;;;;;;;20.00;13.38;;;;;;;;;;2072848;28;20054;-54
2023/09/08 03:44:58;;;;;;;17.05;13.20;;;;;;;;;;2064430;28;20045;-53
2023/09/08 03:45:59;;;;;;;16.73;12.95;;;;;;;;;;2065209;28;20039;-53
2023/09/08 03:47:00;;;;;;;18.77;11.80;;;;;;;;;;2073017;28;20425;-53
2023/09/08 03:48:00;;;;;;;20.83;14.50;;;;;;;;;;2073112;28;20132;-53
2023/09/08 03:49:01;;;;;;;19.38;13.30;;;;;;;;;;2065064;28;20502;-53
2023/09/08 03:50:02;;;;;;;16.80;13.52;;;;;;;;;;2073079;28;20085;-53
2023/09/08 03:51:03;;;;;;;16.05;12.85;;;;;;;;;;2081329;28;20045;-53
2023/09/08 03:52:03;;;;;;;20.27;13.60;;;;;;;;;;2073445;28;20461;-55
2023/09/08 03:53:05;;;;;;;16.58;12.77;;;;;;;;;;2073850;28;20050;-53
2023/09/08 03:54:06;;;;;;;17.73;13.55;;;;;;;;;;2065133;28;20049;-54
2023/09/08 03:55:07;;;;;;;15.65;12.57;;;;;;;;;;2056733;28;20433;-53
2023/09/08 03:56:08;;;;;;;15.60;11.60;;;;;;;;;;2072390;28;20054;-53
2023/09/08 03:57:09;;;;;;;14.25;11.98;;;;;;;;;;2073104;28;20099;-53
2023/09/08 03:58:09;;;;;;;14.57;12.05;;;;;;;;;;2073056;28;20041;-53
2023/09/08 03:59:10;;;;;;;15.63;13.07;;;;;;;;;;2072500;28;20049;-53
2023/09/08 04:00:11;;;;;;;17.65;12.68;;;;;;;;;;2064949;28;20126;-54
2023/09/08 04:01:15;;;;;;;20.20;13.93;;;;;;;;;;2072843;28;20052;-54
2023/09/08 04:02:15;;;;;;;17.40;13.80;;;;;;;;;;2073614;28;20061;-53
2023/09/08 04:03:16;;;;;;;17.10;13.15;;;;;;;;;;2072881;28;20381;-53
2023/09/08 04:04:19;;;;;;;16.95;13.18;;;;;;;;;;2072769;28;20619;-53
2023/09/08 04:05:20;;;;;;;15.85;12.30;;;;;;;;;;2073721;28;20393;-53
2023/09/08 04:06:21;;;;;;;16.10;12.43;;;;;;;;;;2073312;28;20034;-53
2023/09/08 04:07:22;;;;;;;20.52;13.77;;;;;;;;;;2064917;28;20079;-53
2023/09/08 04:08:23;;;;;;;18.02;13.52;;;;;;;;;;2073111;28;20520;-53
2023/09/08 04:09:23;;;;;;;16.60;12.75;;;;;;;;;;2072496;28;20050;-53
2023/09/08 04:10:24;;;;;;;16.90;13.18;;;;;;;;;;2073179;28;20044;-54
2023/09/08 04:11:25;;;;;;;17.70;13.10;;;;;;;;;;2072922;28;20038;-53
2023/09/08 04:12:26;;;;;;;17.15;12.05;;;;;;;;;;2065194;28;20467;-54
2023/09/08 04:13:27;;;;;;;18.75;13.48;;;;;;;;;;2064409;28;20129;-53
2023/09/08 04:14:30;;;;;;;18.13;12.07;;;;;;;;;;2065174;28;20054;-53
2023/09/08 04:15:30;;;;;;;17.98;12.63;;;;;;;;;;2073134;28;20046;-53
2023/09/08 04:16:31;;;;;;;13.93;11.20;;;;;;;;;;2072870;28;20046;-53
2023/09/08 04:17:33;;;;;;;14.88;11.98;;;;;;;;;;2064331;28;20536;-53
2023/09/08 04:18:34;;;;;;;15.25;12.48;;;;;;;;;;2072740;28;20042;-53
2023/09/08 04:19:34;;;;;;;15.15;12.23;;;;;;;;;;2072941;28;20068;-53
2023/09/08 04:20:35;;;;;;;16.23;12.70;;;;;;;;;;2072484;28;20042;-53
2023/09/08 04:21:37;;;;;;;17.67;12.35;;;;;;;;;;2072414;28;20077;-53
2023/09/08 04:22:38;;;;;;;16.10;12.35;;;;;;;;;;2073141;28;20033;-53
2023/09/08 04:23:39;;;;;;;16.75;12.55;;;;;;;;;;2072860;28;20034;-53
2023/09/08 04:24:40;;;;;;;15.32;11.65;;;;;;;;;;2064767;28;20030;-54
2023/09/08 04:25:41;;;;;;;17.30;11.82;;;;;;;;;;2065430;28;20509;-54
2023/09/08 04:26:42;;;;;;;17.73;11.18;;;;;;;;;;2065376;28;20046;-55
2023/09/08 04:27:44;;;;;;;16.77;12.07;;;;;;;;;;2065104;28;20050;-54
2023/09/08 04:28:45;;;;;;;16.05;12.27;;;;;;;;;;2065300;28;20518;-54
2023/09/08 04:29:46;;;;;;;17.83;12.25;;;;;;;;;;2065042;28;20145;-54
2023/09/08 04:30:47;;;;;;;18.40;12.52;;;;;;;;;;2072638;28;20038;-53
2023/09/08 04:31:47;;;;;;;18.23;12.77;;;;;;;;;;2064701;28;20057;-53
2023/09/08 04:32:48;;;;;;;21.90;14.10;;;;;;;;;;2073097;28;20378;-53
2023/09/08 04:33:49;;;;;;;16.65;12.73;;;;;;;;;;2072891;28;20042;-54
2023/09/08 04:34:50;;;;;;;18.35;14.60;;;;;;;;;;2064749;28;20049;-53
2023/09/08 04:35:50;;;;;;;23.20;15.07;;;;;;;;;;2072645;28;20046;-53
2023/09/08 04:36:51;;;;;;;19.63;14.20;;;;;;;;;;2073778;28;20369;-53
2023/09/08 04:37:53;;;;;;;17.60;13.75;;;;;;;;;;2072937;28;20042;-53
2023/09/08 04:38:54;;;;;;;17.23;12.50;;;;;;;;;;2064934;28;20046;-53
2023/09/08 04:39:55;;;;;;;17.38;12.30;;;;;;;;;;2066448;28;20034;-54
2023/09/08 04:40:56;;;;;;;20.42;12.60;;;;;;;;;;2074051;28;20470;-54
2023/09/08 04:41:56;;;;;;;19.38;13.80;;;;;;;;;;2074366;28;20038;-53
2023/09/08 04:42:57;;;;;;;17.23;12.50;;;;;;;;;;2074004;28;20489;-53
2023/09/08 04:43:58;;;;;;;17.15;13.30;;;;;;;;;;2082606;28;20052;-54
2023/09/08 04:44:58;;;;;;;20.35;14.55;;;;;;;;;;2074014;28;20042;-54
2023/09/08 04:45:59;;;;;;;22.75;15.40;;;;;;;;;;2065650;28;20046;-54
2023/09/08 04:47:00;;;;;;;20.58;14.55;;;;;;;;;;2073990;28;20050;-53
2023/09/08 04:48:01;;;;;;;20.58;15.27;;;;;;;;;;2074257;28;20038;-53
2023/09/08 04:49:03;;;;;;;20.00;14.55;;;;;;;;;;2066350;28;20038;-53
2023/09/08 04:50:04;;;;;;;22.33;15.48;;;;;;;;;;2066466;28;20133;-54
2023/09/08 04:51:05;;;;;;;17.83;13.98;;;;;;;;;;2074373;28;20049;-54
2023/09/08 04:52:06;;;;;;;19.80;14.85;;;;;;;;;;2075011;28;20038;-53
2023/09/08 04:53:08;;;;;;;20.80;15.07;;;;;;;;;;2073947;28;20045;-53
2023/09/08 04:54:08;;;;;;;24.67;15.82;;;;;;;;;;2066187;28;20041;-53
2023/09/08 04:55:09;;;;;;;25.08;15.85;;;;;;;;;;2066319;28;20045;-54
2023/09/08 04:56:11;;;;;;;21.55;14.85;;;;;;;;;;2065939;28;20049;-54
2023/09/08 04:57:12;;;;;;;18.45;14.32;;;;;;;;;;2073512;28;20054;-53
2023/09/08 04:58:13;;;;;;;19.92;14.70;;;;;;;;;;2074826;28;20449;-54
2023/09/08 04:59:14;;;;;;;20.58;13.65;;;;;;;;;;2073970;28;20038;-54
2023/09/08 05:00:15;;;;;;;14.93;12.13;;;;;;;;;;2073687;28;20085;-54
2023/09/08 05:01:16;;;;;;;15.95;11.50;;;;;;;;;;2074612;28;20041;-54
2023/09/08 05:02:18;;;;;;;16.02;12.40;;;;;;;;;;2074285;28;20045;-53
2023/09/08 05:03:19;;;;;;;15.88;10.73;;;;;;;;;;2073540;28;20053;-54
2023/09/08 05:04:19;;;;;;;17.42;11.32;;;;;;;;;;2074842;28;20409;-54
2023/09/08 05:05:20;;;;;;;14.80;11.25;;;;;;;;;;2074187;28;20481;-53
2023/09/08 05:06:21;;;;;;;14.93;11.57;;;;;;;;;;2066056;28;20129;-54
2023/09/08 05:07:22;;;;;;;17.85;11.15;;;;;;;;;;2065992;28;20109;-54
2023/09/08 05:08:23;;;;;;;15.23;11.07;;;;;;;;;;2074280;28;20045;-54
2023/09/08 05:09:24;;;;;;;13.85;10.05;;;;;;;;;;2073755;28;20034;-54
2023/09/08 05:10:25;;;;;;;19.70;11.10;;;;;;;;;;2065910;28;20058;-54
2023/09/08 05:11:26;;;;;;;17.63;11.32;;;;;;;;;;2066131;28;20046;-54
2023/09/08 05:12:27;;;;;;;21.85;10.82;;;;;;;;;;2073921;28;20053;-54
2023/09/08 05:13:28;;;;;;;14.77;10.73;;;;;;;;;;2065723;28;20477;-53
2023/09/08 05:14:29;;;;;;;15.55;10.65;;;;;;;;;;2065940;28;20524;-54
2023/09/08 05:15:31;;;;;;;18.08;10.60;;;;;;;;;;2074199;28;20038;-54
2023/09/08 05:16:45;;;;;;;20.65;11.50;;;;;;;;;;2081504;28;20048;-53
2023/09/08 05:17:46;;;;;;;18.27;10.98;;;;;;;;;;2074161;28;20061;-54
2023/09/08 05:18:47;;;;;;;14.00;10.20;;;;;;;;;;2065970;28;20062;-53
2023/09/08 05:19:47;;;;;;;20.52;11.40;;;;;;;;;;2065762;28;20077;-53
2023/09/08 05:20:48;;;;;;;14.75;10.95;;;;;;;;;;2065415;28;20444;-54
2023/09/08 05:21:53;;;;;;;14.55;11.07;;;;;;;;;;2065599;28;20046;-53
2023/09/08 05:22:53;;;;;;;15.38;10.35;;;;;;;;;;2066556;28;20046;-53
2023/09/08 05:23:54;;;;;;;17.30;10.82;;;;;;;;;;2073785;28;20041;-54
2023/09/08 05:24:56;;;;;;;15.00;10.18;;;;;;;;;;2073891;28;20045;-53
2023/09/08 05:25:57;;;;;;;15.98;10.45;;;;;;;;;;2073464;28;20042;-54
2023/09/08 05:26:58;;;;;;;14.70;11.13;;;;;;;;;;2073744;28;20050;-54
2023/09/08 05:27:59;;;;;;;16.90;10.75;;;;;;;;;;2074002;28;20041;-54
2023/09/08 05:28:59;;;;;;;18.33;10.57;;;;;;;;;;2073970;28;20046;-54
2023/09/08 05:30:01;;;;;;;16.70;10.93;;;;;;;;;;2073346;28;20041;-54
2023/09/08 05:31:02;;;;;;;17.77;11.60;;;;;;;;;;2065245;28;20038;-54
2023/09/08 05:32:04;;;;;;;17.73;10.73;;;;;;;;;;2065648;28;20042;-53
2023/09/08 05:33:05;;;;;;;18.17;10.52;;;;;;;;;;2066050;28;20038;-54
2023/09/08 05:34:05;;;;;;;12.48;10.20;;;;;;;;;;2065707;28;20039;-54
2023/09/08 05:35:06;;;;;;;14.45;9.13;;;;;;;;;;2073818;28;20041;-54
2023/09/08 05:36:07;;;;;;;17.48;10.52;;;;;;;;;;2073502;28;20042;-54
2023/09/08 05:37:08;;;;;;;19.15;11.15;;;;;;;;;;2065741;28;20042;-52
2023/09/08 05:38:09;;;;;;;16.00;10.13;;;;;;;;;;2065738;28;20490;-51
2023/09/08 05:39:10;;;;;;;17.23;10.45;;;;;;;;;;2074067;28;20037;-52
2023/09/08 05:40:11;;;;;;;16.40;10.18;;;;;;;;;;2074058;28;20049;-51
2023/09/08 05:41:11;;;;;;;12.90;10.63;;;;;;;;;;2073580;28;20404;-51
2023/09/08 05:42:12;;;;;;;15.00;10.00;;;;;;;;;;2074401;28;20502;-52
2023/09/08 05:43:13;;;;;;;17.48;10.65;;;;;;;;;;2073794;28;20048;-51
2023/09/08 05:44:14;;;;;;;13.50;10.00;;;;;;;;;;2073431;28;20501;-51
2023/09/08 05:45:15;;;;;;;17.05;9.80;;;;;;;;;;2073690;28;20041;-52
2023/09/08 05:46:16;;;;;;;15.00;9.68;;;;;;;;;;2073511;28;20045;-52
2023/09/08 05:47:17;;;;;;;12.48;9.73;;;;;;;;;;2065604;28;20042;-52
2023/09/08 05:48:19;;;;;;;15.18;9.45;;;;;;;;;;2057027;28;20375;-52
2023/09/08 05:49:19;;;;;;;14.25;10.25;;;;;;;;;;2073419;28;20090;-51
2023/09/08 05:50:20;;;;;;;15.57;9.27;;;;;;;;;;2065467;28;20053;-51
2023/09/08 05:51:22;;;;;;;14.60;9.93;;;;;;;;;;2073512;28;20054;-51
2023/09/08 05:52:23;;;;;;;12.45;9.70;;;;;;;;;;2065837;28;20497;-52
2023/09/08 05:53:25;;;;;;;14.73;9.40;;;;;;;;;;2064802;28;20042;-52
2023/09/08 05:54:26;;;;;;;13.80;9.52;;;;;;;;;;2065166;28;20081;-51
2023/09/08 05:55:26;;;;;;;13.43;9.23;;;;;;;;;;2057621;28;20043;-52
2023/09/08 05:56:31;;;;;;;13.43;10.60;;;;;;;;;;2065460;28;20444;-51
2023/09/08 05:57:31;;;;;;;13.43;9.50;;;;;;;;;;2074390;28;20034;-52
2023/09/08 05:58:33;;;;;;;18.15;10.52;;;;;;;;;;2073896;28;20045;-52